sensor_id;sensor_type;location;lat;lon;timestamp;pressure;altitude;pressure_sealevel;temperature;humidity
84511;BME280;74730;43.858;18.424;2024-01-15T00:00:16;94605.75;;;-0.21;81.79
84511;BME280;74730;43.858;18.424;2024-01-15T00:02:42;94602.78;;;-0.16;80.77
84511;BME280;74730;43.858;18.424;2024-01-15T00:05:07;94606.56;;;-0.20;80.43
84511;BME280;74730;43.858;18.424;2024-01-15T00:07:33;94606.69;;;-0.22;80.91
84511;BME280;74730;43.858;18.424;2024-01-15T00:09:59;94602.84;;;-0.26;80.73
84511;BME280;74730;43.858;18.424;2024-01-15T00:12:24;94599.31;;;-0.33;80.82
84511;BME280;74730;43.858;18.424;2024-01-15T00:14:50;94602.28;;;-0.37;80.76
84511;BME280;74730;43.858;18.424;2024-01-15T00:17:15;94591.78;;;-0.42;81.06
84511;BME280;74730;43.858;18.424;2024-01-15T00:19:41;94596.50;;;-0.48;80.99
84511;BME280;74730;43.858;18.424;2024-01-15T00:22:06;94585.69;;;-0.50;81.25
84511;BME280;74730;43.858;18.424;2024-01-15T00:24:32;94585.84;;;-0.51;80.96
84511;BME280;74730;43.858;18.424;2024-01-15T00:26:57;94581.03;;;-0.54;80.85
84511;BME280;74730;43.858;18.424;2024-01-15T00:29:23;94583.13;;;-0.50;81.86
84511;BME280;74730;43.858;18.424;2024-01-15T00:31:48;94566.34;;;-0.51;81.58
84511;BME280;74730;43.858;18.424;2024-01-15T00:34:14;94559.19;;;-0.55;81.17
84511;BME280;74730;43.858;18.424;2024-01-15T00:36:39;94554.75;;;-0.53;81.34
84511;BME280;74730;43.858;18.424;2024-01-15T00:39:05;94556.34;;;-0.52;81.66
84511;BME280;74730;43.858;18.424;2024-01-15T00:41:31;94543.34;;;-0.49;82.25
84511;BME280;74730;43.858;18.424;2024-01-15T00:43:56;94550.09;;;-0.40;81.45
84511;BME280;74730;43.858;18.424;2024-01-15T00:46:22;94535.22;;;-0.35;81.91
84511;BME280;74730;43.858;18.424;2024-01-15T00:48:47;94539.44;;;-0.26;81.29
84511;BME280;74730;43.858;18.424;2024-01-15T00:51:13;94533.59;;;-0.18;81.49
84511;BME280;74730;43.858;18.424;2024-01-15T00:53:39;94534.47;;;-0.10;81.23
84511;BME280;74730;43.858;18.424;2024-01-15T00:56:05;94526.00;;;0.08;80.63
84511;BME280;74730;43.858;18.424;2024-01-15T00:58:30;94517.84;;;0.22;80.45
84511;BME280;74730;43.858;18.424;2024-01-15T01:00:56;94513.00;;;0.36;79.31
84511;BME280;74730;43.858;18.424;2024-01-15T01:03:21;94509.56;;;0.46;78.79
84511;BME280;74730;43.858;18.424;2024-01-15T01:05:49;94515.06;;;0.75;78.59
84511;BME280;74730;43.858;18.424;2024-01-15T01:08:15;94501.41;;;0.76;78.00
84511;BME280;74730;43.858;18.424;2024-01-15T01:10:41;94508.25;;;0.83;77.40
84511;BME280;74730;43.858;18.424;2024-01-15T01:13:08;94502.56;;;0.89;77.20
84511;BME280;74730;43.858;18.424;2024-01-15T01:15:34;94499.22;;;0.97;76.47
84511;BME280;74730;43.858;18.424;2024-01-15T01:17:59;94497.97;;;1.01;76.51
84511;BME280;74730;43.858;18.424;2024-01-15T01:20:25;94485.44;;;1.08;75.91
84511;BME280;74730;43.858;18.424;2024-01-15T01:22:50;94502.28;;;1.09;74.90
84511;BME280;74730;43.858;18.424;2024-01-15T01:25:16;94485.91;;;1.11;74.45
84511;BME280;74730;43.858;18.424;2024-01-15T01:27:41;94496.06;;;1.11;75.04
84511;BME280;74730;43.858;18.424;2024-01-15T01:30:07;94492.72;;;1.11;75.33
84511;BME280;74730;43.858;18.424;2024-01-15T01:32:33;94492.13;;;1.09;75.00
84511;BME280;74730;43.858;18.424;2024-01-15T01:34:58;94486.38;;;1.07;74.85
84511;BME280;74730;43.858;18.424;2024-01-15T01:37:24;94481.28;;;1.07;75.06
84511;BME280;74730;43.858;18.424;2024-01-15T01:39:49;94477.00;;;1.15;74.89
84511;BME280;74730;43.858;18.424;2024-01-15T01:42:15;94477.66;;;1.25;74.37
84511;BME280;74730;43.858;18.424;2024-01-15T01:44:41;94473.38;;;1.26;74.60
84511;BME280;74730;43.858;18.424;2024-01-15T01:47:07;94469.22;;;1.33;74.35
84511;BME280;74730;43.858;18.424;2024-01-15T01:49:33;94460.50;;;1.36;73.96
84511;BME280;74730;43.858;18.424;2024-01-15T01:52:02;94465.44;;;1.37;73.95
84511;BME280;74730;43.858;18.424;2024-01-15T01:54:31;94468.59;;;1.39;73.73
84511;BME280;74730;43.858;18.424;2024-01-15T01:56:57;94458.91;;;1.43;74.30
84511;BME280;74730;43.858;18.424;2024-01-15T01:59:25;94456.06;;;1.46;74.42
84511;BME280;74730;43.858;18.424;2024-01-15T02:01:54;94466.38;;;1.52;74.55
84511;BME280;74730;43.858;18.424;2024-01-15T02:04:19;94471.31;;;1.54;74.48
84511;BME280;74730;43.858;18.424;2024-01-15T02:06:45;94478.47;;;1.58;74.32
84511;BME280;74730;43.858;18.424;2024-01-15T02:09:11;94471.47;;;1.60;74.24
84511;BME280;74730;43.858;18.424;2024-01-15T02:11:41;94467.66;;;1.64;73.72
84511;BME280;74730;43.858;18.424;2024-01-15T02:14:07;94473.53;;;1.65;74.10
84511;BME280;74730;43.858;18.424;2024-01-15T02:16:33;94471.63;;;1.67;74.18
84511;BME280;74730;43.858;18.424;2024-01-15T02:18:59;94458.75;;;1.68;73.25
84511;BME280;74730;43.858;18.424;2024-01-15T02:21:24;94459.69;;;1.67;73.67
84511;BME280;74730;43.858;18.424;2024-01-15T02:23:54;94454.75;;;1.66;73.38
84511;BME280;74730;43.858;18.424;2024-01-15T02:26:19;94450.63;;;1.65;73.62
84511;BME280;74730;43.858;18.424;2024-01-15T02:28:45;94446.16;;;1.67;73.48
84511;BME280;74730;43.858;18.424;2024-01-15T02:31:10;94452.19;;;1.66;74.25
84511;BME280;74730;43.858;18.424;2024-01-15T02:33:36;94445.53;;;1.65;74.60
84511;BME280;74730;43.858;18.424;2024-01-15T02:36:01;94438.53;;;1.67;74.35
84511;BME280;74730;43.858;18.424;2024-01-15T02:38:27;94421.84;;;1.64;73.92
84511;BME280;74730;43.858;18.424;2024-01-15T02:40:53;94408.63;;;1.61;74.57
84511;BME280;74730;43.858;18.424;2024-01-15T02:43:18;94393.22;;;1.54;74.46
84511;BME280;74730;43.858;18.424;2024-01-15T02:45:45;94382.56;;;1.59;74.87
84511;BME280;74730;43.858;18.424;2024-01-15T02:48:11;94373.97;;;1.52;74.60
84511;BME280;74730;43.858;18.424;2024-01-15T02:50:36;94366.19;;;1.45;75.07
84511;BME280;74730;43.858;18.424;2024-01-15T02:53:02;94352.84;;;1.43;75.99
84511;BME280;74730;43.858;18.424;2024-01-15T02:55:28;94347.75;;;1.43;75.51
84511;BME280;74730;43.858;18.424;2024-01-15T02:57:54;94343.59;;;1.42;76.15
84511;BME280;74730;43.858;18.424;2024-01-15T03:00:20;94348.41;;;1.37;75.90
84511;BME280;74730;43.858;18.424;2024-01-15T03:02:48;94348.25;;;1.30;75.74
84511;BME280;74730;43.858;18.424;2024-01-15T03:05:15;94353.47;;;1.29;75.64
84511;BME280;74730;43.858;18.424;2024-01-15T03:07:41;94347.78;;;1.27;75.67
84511;BME280;74730;43.858;18.424;2024-01-15T03:10:07;94346.34;;;1.32;75.00
84511;BME280;74730;43.858;18.424;2024-01-15T03:12:33;94349.84;;;1.31;75.94
84511;BME280;74730;43.858;18.424;2024-01-15T03:14:58;94351.59;;;1.31;75.74
84511;BME280;74730;43.858;18.424;2024-01-15T03:17:23;94348.25;;;1.30;75.69
84511;BME280;74730;43.858;18.424;2024-01-15T03:19:49;94344.41;;;1.34;75.41
84511;BME280;74730;43.858;18.424;2024-01-15T03:22:16;94322.59;;;1.48;75.40
84511;BME280;74730;43.858;18.424;2024-01-15T03:24:41;94323.88;;;1.60;75.03
84511;BME280;74730;43.858;18.424;2024-01-15T03:27:07;94329.53;;;1.70;74.35
84511;BME280;74730;43.858;18.424;2024-01-15T03:29:32;94339.41;;;1.73;74.94
84511;BME280;74730;43.858;18.424;2024-01-15T03:31:58;94329.53;;;1.78;74.24
84511;BME280;74730;43.858;18.424;2024-01-15T03:34:24;94340.97;;;1.83;74.20
84511;BME280;74730;43.858;18.424;2024-01-15T03:36:49;94336.63;;;1.91;74.17
84511;BME280;74730;43.858;18.424;2024-01-15T03:39:15;94332.66;;;1.89;74.32
84511;BME280;74730;43.858;18.424;2024-01-15T03:41:40;94330.09;;;1.89;74.32
84511;BME280;74730;43.858;18.424;2024-01-15T03:44:06;94324.06;;;1.90;73.56
84511;BME280;74730;43.858;18.424;2024-01-15T03:46:32;94315.81;;;1.88;74.21
84511;BME280;74730;43.858;18.424;2024-01-15T03:48:57;94309.13;;;1.87;74.20
84511;BME280;74730;43.858;18.424;2024-01-15T03:51:23;94309.94;;;1.87;74.11
84511;BME280;74730;43.858;18.424;2024-01-15T03:53:48;94302.44;;;1.86;74.91
84511;BME280;74730;43.858;18.424;2024-01-15T03:56:14;94308.00;;;1.89;74.01
84511;BME280;74730;43.858;18.424;2024-01-15T03:58:40;94301.31;;;1.88;74.10
84511;BME280;74730;43.858;18.424;2024-01-15T04:01:11;94293.84;;;1.87;73.84
84511;BME280;74730;43.858;18.424;2024-01-15T04:03:37;94296.19;;;1.96;73.93
84511;BME280;74730;43.858;18.424;2024-01-15T04:06:03;94295.06;;;1.99;73.77
84511;BME280;74730;43.858;18.424;2024-01-15T04:08:29;94293.66;;;1.96;73.88
84511;BME280;74730;43.858;18.424;2024-01-15T04:10:55;94288.56;;;1.96;73.90
84511;BME280;74730;43.858;18.424;2024-01-15T04:13:21;94299.34;;;1.98;73.57
84511;BME280;74730;43.858;18.424;2024-01-15T04:15:46;94292.16;;;2.02;74.44
84511;BME280;74730;43.858;18.424;2024-01-15T04:18:12;94292.97;;;2.02;73.50
84511;BME280;74730;43.858;18.424;2024-01-15T04:20:38;94296.31;;;2.03;74.41
84511;BME280;74730;43.858;18.424;2024-01-15T04:23:04;94297.75;;;2.05;73.83
84511;BME280;74730;43.858;18.424;2024-01-15T04:25:30;94290.91;;;2.06;73.66
84511;BME280;74730;43.858;18.424;2024-01-15T04:27:55;94299.78;;;2.10;73.95
84511;BME280;74730;43.858;18.424;2024-01-15T04:30:21;94305.19;;;2.15;73.74
84511;BME280;74730;43.858;18.424;2024-01-15T04:32:46;94303.25;;;2.17;74.34
84511;BME280;74730;43.858;18.424;2024-01-15T04:35:12;94305.28;;;2.21;74.19
84511;BME280;74730;43.858;18.424;2024-01-15T04:37:39;94307.03;;;2.21;73.53
84511;BME280;74730;43.858;18.424;2024-01-15T04:40:05;94306.09;;;2.22;73.55
84511;BME280;74730;43.858;18.424;2024-01-15T04:42:30;94299.09;;;2.24;74.11
84511;BME280;74730;43.858;18.424;2024-01-15T04:44:56;94294.00;;;2.24;73.57
84511;BME280;74730;43.858;18.424;2024-01-15T04:47:22;94288.69;;;2.26;73.85
84511;BME280;74730;43.858;18.424;2024-01-15T04:49:47;94285.03;;;2.28;74.39
84511;BME280;74730;43.858;18.424;2024-01-15T04:52:14;94280.09;;;2.27;73.77
84511;BME280;74730;43.858;18.424;2024-01-15T04:54:40;94278.69;;;2.24;74.03
84511;BME280;74730;43.858;18.424;2024-01-15T04:57:05;94259.59;;;2.20;74.19
84511;BME280;74730;43.858;18.424;2024-01-15T04:59:31;94271.22;;;2.22;74.10
84511;BME280;74730;43.858;18.424;2024-01-15T05:01:57;94274.84;;;2.28;74.41
84511;BME280;74730;43.858;18.424;2024-01-15T05:04:22;94268.81;;;2.29;74.23
84511;BME280;74730;43.858;18.424;2024-01-15T05:06:49;94272.88;;;2.38;74.40
84511;BME280;74730;43.858;18.424;2024-01-15T05:09:15;94265.41;;;2.37;74.41
84511;BME280;74730;43.858;18.424;2024-01-15T05:11:40;94265.75;;;2.34;74.61
84511;BME280;74730;43.858;18.424;2024-01-15T05:14:06;94257.91;;;2.35;74.07
84511;BME280;74730;43.858;18.424;2024-01-15T05:16:31;94262.06;;;2.36;74.43
84511;BME280;74730;43.858;18.424;2024-01-15T05:18:57;94269.34;;;2.39;74.72
84511;BME280;74730;43.858;18.424;2024-01-15T05:21:22;94271.38;;;2.44;74.69
84511;BME280;74730;43.858;18.424;2024-01-15T05:23:48;94266.94;;;2.46;73.99
84511;BME280;74730;43.858;18.424;2024-01-15T05:26:13;94263.22;;;2.48;74.11
84511;BME280;74730;43.858;18.424;2024-01-15T05:28:41;94262.41;;;2.56;73.92
84511;BME280;74730;43.858;18.424;2024-01-15T05:31:08;94256.66;;;2.54;74.65
84511;BME280;74730;43.858;18.424;2024-01-15T05:33:34;94252.25;;;2.48;74.60
84511;BME280;74730;43.858;18.424;2024-01-15T05:35:59;94254.63;;;2.49;74.87
84511;BME280;74730;43.858;18.424;2024-01-15T05:38:25;94261.41;;;2.57;74.30
84511;BME280;74730;43.858;18.424;2024-01-15T05:40:50;94249.03;;;2.54;74.54
84511;BME280;74730;43.858;18.424;2024-01-15T05:43:16;94256.81;;;2.52;74.33
84511;BME280;74730;43.858;18.424;2024-01-15T05:45:43;94247.72;;;2.58;74.21
84511;BME280;74730;43.858;18.424;2024-01-15T05:48:09;94249.41;;;2.65;74.27
84511;BME280;74730;43.858;18.424;2024-01-15T05:50:34;94239.66;;;2.69;74.51
84511;BME280;74730;43.858;18.424;2024-01-15T05:53:00;94238.06;;;2.68;74.57
84511;BME280;74730;43.858;18.424;2024-01-15T05:55:25;94234.72;;;2.67;74.41
84511;BME280;74730;43.858;18.424;2024-01-15T05:57:51;94235.97;;;2.72;74.11
84511;BME280;74730;43.858;18.424;2024-01-15T06:00:17;94226.72;;;2.71;74.17
84511;BME280;74730;43.858;18.424;2024-01-15T06:02:42;94231.81;;;2.71;74.66
84511;BME280;74730;43.858;18.424;2024-01-15T06:05:08;94226.72;;;2.71;74.66
84511;BME280;74730;43.858;18.424;2024-01-15T06:07:34;94228.31;;;2.72;74.34
84511;BME280;74730;43.858;18.424;2024-01-15T06:10:01;94224.81;;;2.73;73.97
84511;BME280;74730;43.858;18.424;2024-01-15T06:12:27;94219.72;;;2.73;73.73
84511;BME280;74730;43.858;18.424;2024-01-15T06:14:53;94218.91;;;2.72;73.59
84511;BME280;74730;43.858;18.424;2024-01-15T06:17:18;94215.56;;;2.72;73.98
84511;BME280;74730;43.858;18.424;2024-01-15T06:19:44;94198.09;;;2.68;74.69
84511;BME280;74730;43.858;18.424;2024-01-15T06:22:09;94192.97;;;2.68;74.33
84511;BME280;74730;43.858;18.424;2024-01-15T06:24:35;94189.91;;;2.73;75.01
84511;BME280;74730;43.858;18.424;2024-01-15T06:27:00;94177.00;;;2.75;74.62
84511;BME280;74730;43.858;18.424;2024-01-15T06:29:26;94181.38;;;2.81;75.01
84511;BME280;74730;43.858;18.424;2024-01-15T06:31:52;94182.63;;;2.85;74.22
84511;BME280;74730;43.858;18.424;2024-01-15T06:34:18;94186.16;;;2.84;74.35
84511;BME280;74730;43.858;18.424;2024-01-15T06:36:44;94177.72;;;2.83;74.66
84511;BME280;74730;43.858;18.424;2024-01-15T06:39:10;94175.59;;;2.87;74.58
84511;BME280;74730;43.858;18.424;2024-01-15T06:41:35;94175.44;;;2.88;75.10
84511;BME280;74730;43.858;18.424;2024-01-15T06:44:06;94162.75;;;2.95;74.74
84511;BME280;74730;43.858;18.424;2024-01-15T06:46:32;94176.22;;;3.03;74.77
84511;BME280;74730;43.858;18.424;2024-01-15T06:48:58;94172.97;;;3.09;74.67
84511;BME280;74730;43.858;18.424;2024-01-15T06:51:23;94174.47;;;3.19;74.70
84511;BME280;74730;43.858;18.424;2024-01-15T06:53:49;94170.69;;;3.29;74.11
84511;BME280;74730;43.858;18.424;2024-01-15T06:56:14;94160.25;;;3.45;74.32
84511;BME280;74730;43.858;18.424;2024-01-15T06:58:40;94155.38;;;3.65;73.16
84511;BME280;74730;43.858;18.424;2024-01-15T07:01:05;94160.25;;;3.81;72.91
84511;BME280;74730;43.858;18.424;2024-01-15T07:03:31;94146.47;;;3.97;72.37
84511;BME280;74730;43.858;18.424;2024-01-15T07:05:57;94155.59;;;4.06;71.97
84511;BME280;74730;43.858;18.424;2024-01-15T07:08:23;94128.22;;;4.21;70.99
84511;BME280;74730;43.858;18.424;2024-01-15T07:10:48;94146.34;;;4.26;70.67
84511;BME280;74730;43.858;18.424;2024-01-15T07:13:14;94143.69;;;4.34;70.82
84511;BME280;74730;43.858;18.424;2024-01-15T07:15:40;94138.59;;;4.41;70.55
84511;BME280;74730;43.858;18.424;2024-01-15T07:18:05;94146.34;;;4.47;69.93
84511;BME280;74730;43.858;18.424;2024-01-15T07:20:31;94152.03;;;4.50;69.63
84511;BME280;74730;43.858;18.424;2024-01-15T07:22:56;94158.97;;;4.56;69.52
84511;BME280;74730;43.858;18.424;2024-01-15T07:25:22;94165.50;;;4.58;69.72
84511;BME280;74730;43.858;18.424;2024-01-15T07:27:47;94158.59;;;4.59;69.11
84511;BME280;74730;43.858;18.424;2024-01-15T07:30:13;94163.66;;;4.52;68.94
84511;BME280;74730;43.858;18.424;2024-01-15T07:32:39;94169.34;;;4.47;69.18
84511;BME280;74730;43.858;18.424;2024-01-15T07:35:06;94174.59;;;4.39;69.12
84511;BME280;74730;43.858;18.424;2024-01-15T07:37:31;94160.78;;;4.34;69.54
84511;BME280;74730;43.858;18.424;2024-01-15T07:39:57;94174.91;;;4.30;69.60
84511;BME280;74730;43.858;18.424;2024-01-15T07:42:23;94176.66;;;4.29;69.98
84511;BME280;74730;43.858;18.424;2024-01-15T07:44:48;94173.34;;;4.35;69.24
84511;BME280;74730;43.858;18.424;2024-01-15T07:47:16;94188.75;;;4.42;69.39
84511;BME280;74730;43.858;18.424;2024-01-15T07:49:42;94183.66;;;4.42;69.77
84511;BME280;74730;43.858;18.424;2024-01-15T07:52:07;94184.44;;;4.42;69.46
84511;BME280;74730;43.858;18.424;2024-01-15T07:54:33;94176.34;;;4.39;70.89
84511;BME280;74730;43.858;18.424;2024-01-15T07:57:02;94171.81;;;4.41;69.96
84511;BME280;74730;43.858;18.424;2024-01-15T07:59:31;94166.06;;;4.54;69.63
84511;BME280;74730;43.858;18.424;2024-01-15T08:01:58;94160.88;;;4.47;70.07
84511;BME280;74730;43.858;18.424;2024-01-15T08:04:24;94161.06;;;4.45;69.83
84511;BME280;74730;43.858;18.424;2024-01-15T08:06:51;94156.94;;;4.44;70.21
84511;BME280;74730;43.858;18.424;2024-01-15T08:09:16;94160.31;;;4.52;70.67
84511;BME280;74730;43.858;18.424;2024-01-15T08:11:42;94155.44;;;4.57;71.45
84511;BME280;74730;43.858;18.424;2024-01-15T08:14:09;94157.03;;;4.58;70.56
84511;BME280;74730;43.858;18.424;2024-01-15T08:16:35;94159.63;;;4.64;71.02
84511;BME280;74730;43.858;18.424;2024-01-15T08:19:01;94160.09;;;4.74;70.73
84511;BME280;74730;43.858;18.424;2024-01-15T08:21:27;94153.25;;;4.81;70.09
84511;BME280;74730;43.858;18.424;2024-01-15T08:23:58;94152.88;;;4.84;70.35
84511;BME280;74730;43.858;18.424;2024-01-15T08:26:24;94150.13;;;4.86;70.38
84511;BME280;74730;43.858;18.424;2024-01-15T08:28:50;94140.31;;;4.89;69.99
84511;BME280;74730;43.858;18.424;2024-01-15T08:31:16;94164.31;;;4.88;68.99
84511;BME280;74730;43.858;18.424;2024-01-15T08:33:41;94160.59;;;4.91;68.80
84511;BME280;74730;43.858;18.424;2024-01-15T08:36:07;94159.63;;;4.92;69.46
84511;BME280;74730;43.858;18.424;2024-01-15T08:38:32;94157.44;;;4.89;69.51
84511;BME280;74730;43.858;18.424;2024-01-15T08:40:58;94155.13;;;4.94;69.25
84511;BME280;74730;43.858;18.424;2024-01-15T08:43:29;94153.19;;;5.03;68.49
84511;BME280;74730;43.858;18.424;2024-01-15T08:45:56;94146.72;;;5.07;68.83
84511;BME280;74730;43.858;18.424;2024-01-15T08:48:22;94144.94;;;5.07;67.57
84511;BME280;74730;43.858;18.424;2024-01-15T08:50:48;94154.56;;;5.05;68.45
84511;BME280;74730;43.858;18.424;2024-01-15T08:53:14;94147.53;;;5.14;68.05
84511;BME280;74730;43.858;18.424;2024-01-15T08:55:40;94140.88;;;5.19;68.83
84511;BME280;74730;43.858;18.424;2024-01-15T08:58:08;94141.25;;;5.16;68.91
84511;BME280;74730;43.858;18.424;2024-01-15T09:00:33;94133.06;;;5.34;68.93
84511;BME280;74730;43.858;18.424;2024-01-15T09:02:59;94145.34;;;5.52;67.78
84511;BME280;74730;43.858;18.424;2024-01-15T09:05:25;94135.16;;;5.65;67.91
84511;BME280;74730;43.858;18.424;2024-01-15T09:07:51;94143.06;;;5.83;67.47
84511;BME280;74730;43.858;18.424;2024-01-15T09:10:18;94135.06;;;5.93;67.03
84511;BME280;74730;43.858;18.424;2024-01-15T09:12:43;94130.75;;;6.06;66.89
84511;BME280;74730;43.858;18.424;2024-01-15T09:15:09;94128.97;;;6.20;65.58
84511;BME280;74730;43.858;18.424;2024-01-15T09:17:34;94126.63;;;6.25;65.61
84511;BME280;74730;43.858;18.424;2024-01-15T09:20:00;94128.41;;;6.38;64.95
84511;BME280;74730;43.858;18.424;2024-01-15T09:22:26;94122.09;;;6.40;65.10
84511;BME280;74730;43.858;18.424;2024-01-15T09:24:52;94132.34;;;6.34;65.64
84511;BME280;74730;43.858;18.424;2024-01-15T09:27:17;94118.72;;;6.46;65.39
84511;BME280;74730;43.858;18.424;2024-01-15T09:29:43;94115.97;;;6.61;64.74
84511;BME280;74730;43.858;18.424;2024-01-15T09:32:11;94117.94;;;6.72;64.82
84511;BME280;74730;43.858;18.424;2024-01-15T09:34:38;94119.91;;;6.77;64.31
84511;BME280;74730;43.858;18.424;2024-01-15T09:37:04;94119.88;;;6.83;63.95
84511;BME280;74730;43.858;18.424;2024-01-15T09:39:29;94116.53;;;6.89;64.19
84511;BME280;74730;43.858;18.424;2024-01-15T09:41:56;94097.53;;;6.97;63.28
84511;BME280;74730;43.858;18.424;2024-01-15T09:44:22;94100.50;;;7.00;63.26
84511;BME280;74730;43.858;18.424;2024-01-15T09:46:48;94077.03;;;6.90;63.64
84511;BME280;74730;43.858;18.424;2024-01-15T09:49:17;94094.63;;;6.80;63.43
84511;BME280;74730;43.858;18.424;2024-01-15T09:51:43;94072.75;;;6.58;64.76
84511;BME280;74730;43.858;18.424;2024-01-15T09:54:09;94078.50;;;6.40;65.43
84511;BME280;74730;43.858;18.424;2024-01-15T09:56:35;94081.47;;;6.50;66.00
84511;BME280;74730;43.858;18.424;2024-01-15T09:59:01;94068.63;;;6.50;65.17
84511;BME280;74730;43.858;18.424;2024-01-15T10:01:31;94061.31;;;6.47;66.07
84511;BME280;74730;43.858;18.424;2024-01-15T10:03:57;94048.50;;;6.54;66.44
84511;BME280;74730;43.858;18.424;2024-01-15T10:06:24;94045.72;;;6.55;66.31
84511;BME280;74730;43.858;18.424;2024-01-15T10:08:53;94053.78;;;6.65;65.13
84511;BME280;74730;43.858;18.424;2024-01-15T10:11:19;94055.56;;;6.78;65.40
84511;BME280;74730;43.858;18.424;2024-01-15T10:13:46;94035.03;;;6.78;64.47
84511;BME280;74730;43.858;18.424;2024-01-15T10:16:12;94050.44;;;6.78;65.09
84511;BME280;74730;43.858;18.424;2024-01-15T10:18:38;94036.78;;;6.84;65.31
84511;BME280;74730;43.858;18.424;2024-01-15T10:21:07;94033.00;;;6.93;65.11
84511;BME280;74730;43.858;18.424;2024-01-15T10:23:33;94021.50;;;7.02;64.21
84511;BME280;74730;43.858;18.424;2024-01-15T10:26:00;94020.88;;;7.13;63.77
84511;BME280;74730;43.858;18.424;2024-01-15T10:28:30;94019.44;;;7.24;63.99
84511;BME280;74730;43.858;18.424;2024-01-15T10:30:58;94022.97;;;7.30;63.49
84511;BME280;74730;43.858;18.424;2024-01-15T10:33:27;94023.34;;;7.33;63.15
84511;BME280;74730;43.858;18.424;2024-01-15T10:35:57;94020.78;;;7.33;63.03
84511;BME280;74730;43.858;18.424;2024-01-15T10:38:24;94017.38;;;7.39;62.72
84511;BME280;74730;43.858;18.424;2024-01-15T10:40:56;94012.31;;;7.33;62.69
84511;BME280;74730;43.858;18.424;2024-01-15T10:43:22;94009.00;;;7.19;62.86
84511;BME280;74730;43.858;18.424;2024-01-15T10:45:49;94004.88;;;7.11;63.68
84511;BME280;74730;43.858;18.424;2024-01-15T10:48:19;93998.94;;;7.18;64.01
84511;BME280;74730;43.858;18.424;2024-01-15T10:50:48;94002.06;;;7.26;63.85
84511;BME280;74730;43.858;18.424;2024-01-15T10:53:15;93988.22;;;7.27;64.08
84511;BME280;74730;43.858;18.424;2024-01-15T10:55:41;93976.13;;;7.34;64.79
84511;BME280;74730;43.858;18.424;2024-01-15T10:58:08;93987.00;;;7.30;64.26
84511;BME280;74730;43.858;18.424;2024-01-15T11:00:35;93985.13;;;7.19;65.12
84511;BME280;74730;43.858;18.424;2024-01-15T11:03:03;93975.41;;;7.21;65.47
84511;BME280;74730;43.858;18.424;2024-01-15T11:05:46;93966.47;;;7.30;65.69
84511;BME280;74730;43.858;18.424;2024-01-15T11:08:12;93967.22;;;7.37;65.04
84511;BME280;74730;43.858;18.424;2024-01-15T11:10:50;93972.47;;;7.48;64.66
84511;BME280;74730;43.858;18.424;2024-01-15T11:13:22;93963.44;;;7.39;65.28
84511;BME280;74730;43.858;18.424;2024-01-15T11:16:06;93958.47;;;7.44;65.06
84511;BME280;74730;43.858;18.424;2024-01-15T11:18:39;93954.47;;;7.55;64.88
84511;BME280;74730;43.858;18.424;2024-01-15T11:28:56;93919.97;;;7.69;64.89
84511;BME280;74730;43.858;18.424;2024-01-15T11:31:29;93928.72;;;7.86;63.62
84511;BME280;74730;43.858;18.424;2024-01-15T11:33:55;93919.63;;;7.84;64.09
84511;BME280;74730;43.858;18.424;2024-01-15T11:36:42;93925.66;;;7.96;63.88
84511;BME280;74730;43.858;18.424;2024-01-15T11:39:39;93927.19;;;8.22;62.97
84511;BME280;74730;43.858;18.424;2024-01-15T11:42:04;93910.00;;;7.97;63.74
84511;BME280;74730;43.858;18.424;2024-01-15T11:44:30;93897.59;;;7.94;63.60
84511;BME280;74730;43.858;18.424;2024-01-15T11:47:03;93896.31;;;8.03;62.51
84511;BME280;74730;43.858;18.424;2024-01-15T11:50:00;93894.91;;;8.26;62.38
84511;BME280;74730;43.858;18.424;2024-01-15T11:52:26;93899.59;;;8.35;62.19
84511;BME280;74730;43.858;18.424;2024-01-15T11:55:27;93877.34;;;8.41;61.66
84511;BME280;74730;43.858;18.424;2024-01-15T11:57:55;93882.84;;;8.63;61.82
84511;BME280;74730;43.858;18.424;2024-01-15T12:00:21;93868.47;;;8.73;61.08
84511;BME280;74730;43.858;18.424;2024-01-15T12:02:48;93862.34;;;8.86;61.15
84511;BME280;74730;43.858;18.424;2024-01-15T12:05:15;93861.28;;;8.94;60.53
84511;BME280;74730;43.858;18.424;2024-01-15T12:07:46;93863.09;;;9.05;60.39
84511;BME280;74730;43.858;18.424;2024-01-15T12:15:11;93864.91;;;9.16;59.02
84511;BME280;74730;43.858;18.424;2024-01-15T12:17:38;93864.25;;;9.20;59.22
84511;BME280;74730;43.858;18.424;2024-01-15T12:20:07;93857.19;;;9.27;59.01
84511;BME280;74730;43.858;18.424;2024-01-15T12:22:32;93853.97;;;9.32;58.95
84511;BME280;74730;43.858;18.424;2024-01-15T12:24:58;93841.00;;;9.39;58.01
84511;BME280;74730;43.858;18.424;2024-01-15T12:27:24;93845.34;;;9.50;57.75
84511;BME280;74730;43.858;18.424;2024-01-15T12:29:50;93830.44;;;9.40;57.89
84511;BME280;74730;43.858;18.424;2024-01-15T12:32:15;93819.56;;;9.26;57.90
84511;BME280;74730;43.858;18.424;2024-01-15T12:34:41;93821.94;;;9.28;58.25
84511;BME280;74730;43.858;18.424;2024-01-15T12:37:07;93799.28;;;9.18;58.54
84511;BME280;74730;43.858;18.424;2024-01-15T12:39:36;93797.38;;;9.14;59.20
84511;BME280;74730;43.858;18.424;2024-01-15T12:42:02;93794.13;;;9.18;58.94
84511;BME280;74730;43.858;18.424;2024-01-15T12:44:28;93789.19;;;9.17;58.85
84511;BME280;74730;43.858;18.424;2024-01-15T12:46:54;93769.06;;;9.25;59.08
84511;BME280;74730;43.858;18.424;2024-01-15T12:49:21;93780.69;;;9.28;59.03
84511;BME280;74730;43.858;18.424;2024-01-15T12:52:13;93794.59;;;9.27;58.85
84511;BME280;74730;43.858;18.424;2024-01-15T12:54:38;93795.63;;;9.38;58.54
84511;BME280;74730;43.858;18.424;2024-01-15T12:57:04;93791.47;;;9.48;58.42
84511;BME280;74730;43.858;18.424;2024-01-15T12:59:30;93792.59;;;9.64;58.16
84511;BME280;74730;43.858;18.424;2024-01-15T13:01:55;93782.28;;;9.75;57.34
84511;BME280;74730;43.858;18.424;2024-01-15T13:04:24;93778.88;;;9.87;57.20
84511;BME280;74730;43.858;18.424;2024-01-15T13:06:50;93784.25;;;9.97;57.15
84511;BME280;74730;43.858;18.424;2024-01-15T13:09:17;93767.53;;;10.11;56.76